Time;durP1;ratioP1;P1;durP2;ratioP2;P2;SDS_P1;SDS_P2;PMS_P1;PMS_P2;Temp;Humidity;BMP_temperature;BMP_pressure;BME280_temperature;BME280_humidity;BME280_pressure;Samples;Min_cycle;Max_cycle;Signal;HPM_P1;HPM_P2
2022/03/24 00:01:35;;;;;;;64.45;33.58;;;;;;;;;;5074779;28;20039;-63
2022/03/24 00:04:00;;;;;;;59.70;33.15;;;;;;;;;;5074442;28;20156;-62
2022/03/24 00:06:26;;;;;;;60.42;32.97;;;;;;;;;;5074606;28;20047;-63
2022/03/24 00:08:51;;;;;;;72.55;37.45;;;;;;;;;;5074733;28;20039;-63
2022/03/24 00:11:20;;;;;;;74.45;38.38;;;;;;;;;;5056605;28;20072;-62
2022/03/24 00:13:46;;;;;;;73.43;38.42;;;;;;;;;;5073784;28;20063;-61
2022/03/24 00:16:12;;;;;;;76.50;38.78;;;;;;;;;;5074291;28;20040;-61
2022/03/24 00:18:37;;;;;;;60.13;34.30;;;;;;;;;;5074459;28;20098;-62
2022/03/24 00:21:03;;;;;;;67.75;35.17;;;;;;;;;;5074253;28;20475;-62
2022/03/24 00:23:28;;;;;;;71.88;38.70;;;;;;;;;;5074072;28;20029;-61
2022/03/24 00:25:54;;;;;;;65.18;33.65;;;;;;;;;;5074298;28;20372;-62
2022/03/24 00:28:19;;;;;;;61.63;31.30;;;;;;;;;;5074135;28;20028;-62
2022/03/24 00:30:45;;;;;;;63.85;35.03;;;;;;;;;;5073946;28;20120;-71
2022/03/24 00:33:12;;;;;;;66.35;36.75;;;;;;;;;;5074234;28;20478;-71
2022/03/24 00:35:38;;;;;;;55.83;30.05;;;;;;;;;;5056029;28;20032;-71
2022/03/24 00:38:05;;;;;;;53.45;28.70;;;;;;;;;;5073596;28;20044;-71
2022/03/24 00:40:30;;;;;;;47.47;26.95;;;;;;;;;;5073563;28;20037;-71
2022/03/24 00:42:56;;;;;;;48.90;26.90;;;;;;;;;;5073679;28;20516;-71
2022/03/24 00:45:23;;;;;;;48.70;25.85;;;;;;;;;;5055870;28;20483;-70
2022/03/24 00:47:49;;;;;;;55.92;29.02;;;;;;;;;;5073116;28;20033;-71
2022/03/24 00:50:14;;;;;;;63.65;32.63;;;;;;;;;;5073495;28;20036;-71
2022/03/24 00:52:45;;;;;;;44.53;25.45;;;;;;;;;;5073621;28;20033;-71
2022/03/24 00:55:12;;;;;;;;;;;;;;;;;;5074034;28;20437;-71
2022/03/24 00:57:44;;;;;;;50.28;27.98;;;;;;;;;;5073875;28;19911;-71
2022/03/24 01:00:17;;;;;;;47.67;27.42;;;;;;;;;;5073629;28;20070;-71
2022/03/24 01:02:44;;;;;;;56.55;28.98;;;;;;;;;;5073665;28;20127;-71
2022/03/24 01:05:13;;;;;;;50.78;28.83;;;;;;;;;;5073553;28;20028;-71
2022/03/24 01:07:39;;;;;;;47.28;26.25;;;;;;;;;;5055103;28;20049;-71
2022/03/24 01:10:05;;;;;;;55.45;28.23;;;;;;;;;;5073543;28;20086;-71
2022/03/24 01:12:30;;;;;;;47.88;26.83;;;;;;;;;;5073373;28;20032;-71
2022/03/24 01:14:56;;;;;;;65.82;34.95;;;;;;;;;;5073316;28;20086;-71
2022/03/24 01:17:23;;;;;;;66.07;35.47;;;;;;;;;;5055445;28;20040;-70
2022/03/24 01:19:49;;;;;;;92.75;43.65;;;;;;;;;;5073263;28;20547;-70
2022/03/24 01:22:14;;;;;;;71.20;38.17;;;;;;;;;;5055319;28;20094;-69
2022/03/24 01:24:41;;;;;;;69.82;36.53;;;;;;;;;;5073396;28;20463;-69
2022/03/24 01:27:06;;;;;;;66.97;33.75;;;;;;;;;;5073167;28;20090;-70
2022/03/24 01:29:32;;;;;;;67.15;35.13;;;;;;;;;;5073391;28;20031;-69
2022/03/24 01:31:58;;;;;;;58.38;30.48;;;;;;;;;;5055389;28;20035;-69
2022/03/24 01:34:24;;;;;;;54.75;29.40;;;;;;;;;;5038642;28;20517;-71
2022/03/24 01:36:52;;;;;;;59.40;32.05;;;;;;;;;;5054809;28;20509;-70
2022/03/24 01:39:17;;;;;;;54.60;30.25;;;;;;;;;;5055352;28;20076;-70
2022/03/24 01:41:45;;;;;;;48.28;27.25;;;;;;;;;;5055203;28;20033;-62
2022/03/24 01:44:12;;;;;;;44.60;27.23;;;;;;;;;;5073105;28;20146;-61
2022/03/24 01:46:38;;;;;;;56.22;30.63;;;;;;;;;;5073394;28;20127;-62
2022/03/24 01:49:04;;;;;;;56.90;30.92;;;;;;;;;;5055184;28;20029;-62
2022/03/24 01:51:29;;;;;;;58.25;31.45;;;;;;;;;;5055252;28;20074;-69
2022/03/24 01:53:59;;;;;;;51.08;29.42;;;;;;;;;;5073291;28;20025;-70
2022/03/24 01:56:26;;;;;;;49.03;27.50;;;;;;;;;;5055127;28;20584;-70
2022/03/24 01:58:54;;;;;;;49.85;28.40;;;;;;;;;;5055537;28;20029;-71
2022/03/24 02:01:29;;;;;;;50.35;27.83;;;;;;;;;;5059185;28;20123;-70
2022/03/24 02:03:55;;;;;;;53.45;29.50;;;;;;;;;;5059019;28;20044;-70
2022/03/24 02:06:21;;;;;;;56.13;30.30;;;;;;;;;;5058851;28;20025;-71
2022/03/24 02:08:47;;;;;;;57.40;31.58;;;;;;;;;;5058962;28;20123;-70
2022/03/24 02:11:12;;;;;;;59.08;31.90;;;;;;;;;;5058937;28;20059;-70
2022/03/24 02:13:38;;;;;;;57.00;32.10;;;;;;;;;;5058844;28;20039;-71
2022/03/24 02:16:12;;;;;;;56.15;30.20;;;;;;;;;;5058923;28;20060;-71
2022/03/24 02:18:39;;;;;;;54.30;29.13;;;;;;;;;;5058910;28;20040;-71
2022/03/24 02:21:04;;;;;;;48.45;26.90;;;;;;;;;;5058699;28;20013;-70
2022/03/24 02:23:30;;;;;;;49.97;27.67;;;;;;;;;;5076648;28;20459;-68
2022/03/24 02:25:55;;;;;;;51.72;28.50;;;;;;;;;;5076326;28;20024;-70
2022/03/24 02:28:22;;;;;;;53.97;29.27;;;;;;;;;;5076484;28;20380;-70
2022/03/24 02:30:50;;;;;;;53.00;28.55;;;;;;;;;;5058626;28;20122;-70
2022/03/24 02:33:19;;;;;;;52.75;30.75;;;;;;;;;;5076335;28;20037;-70
2022/03/24 02:35:45;;;;;;;56.97;30.52;;;;;;;;;;5076508;28;20339;-69
2022/03/24 02:38:13;;;;;;;56.38;31.77;;;;;;;;;;5075890;28;20138;-69
2022/03/24 02:40:39;;;;;;;65.28;33.47;;;;;;;;;;5058131;28;20131;-69
2022/03/24 02:43:05;;;;;;;56.67;31.27;;;;;;;;;;5076037;28;20120;-62
2022/03/24 02:45:30;;;;;;;52.25;30.30;;;;;;;;;;5075968;28;20025;-69
2022/03/24 02:47:56;;;;;;;48.13;27.67;;;;;;;;;;5076122;28;20068;-69
2022/03/24 02:50:22;;;;;;;50.45;27.27;;;;;;;;;;5076163;28;20071;-69
2022/03/24 02:52:47;;;;;;;47.50;27.27;;;;;;;;;;5058045;28;20044;-69
2022/03/24 02:55:13;;;;;;;42.67;25.42;;;;;;;;;;5076183;28;20039;-69
2022/03/24 02:57:38;;;;;;;46.67;25.67;;;;;;;;;;5075961;28;20381;-70
2022/03/24 03:00:05;;;;;;;35.10;20.98;;;;;;;;;;5075792;28;20428;-62
2022/03/24 03:02:30;;;;;;;34.58;20.42;;;;;;;;;;5076208;28;20044;-62
2022/03/24 03:04:55;;;;;;;35.30;20.60;;;;;;;;;;5058045;28;20025;-61
2022/03/24 03:07:22;;;;;;;31.73;18.92;;;;;;;;;;5075778;28;20072;-62
2022/03/24 03:09:48;;;;;;;34.55;20.13;;;;;;;;;;5075401;28;20043;-62
2022/03/24 03:12:16;;;;;;;34.92;21.45;;;;;;;;;;5057688;28;20434;-61
2022/03/24 03:14:41;;;;;;;37.60;21.48;;;;;;;;;;5075513;28;20028;-62
2022/03/24 03:17:08;;;;;;;38.15;22.20;;;;;;;;;;5075576;28;20082;-62
2022/03/24 03:19:34;;;;;;;38.90;24.08;;;;;;;;;;5075637;28;20080;-62
2022/03/24 03:22:04;;;;;;;41.42;23.80;;;;;;;;;;5075395;28;20048;-62
2022/03/24 03:24:29;;;;;;;45.53;25.80;;;;;;;;;;5057576;28;20028;-62
2022/03/24 03:26:55;;;;;;;40.60;23.35;;;;;;;;;;5075365;28;20078;-62
2022/03/24 03:29:23;;;;;;;44.55;24.15;;;;;;;;;;5075211;28;20024;-61
2022/03/24 03:31:50;;;;;;;38.30;23.17;;;;;;;;;;5075367;28;20505;-70
2022/03/24 03:34:15;;;;;;;36.40;22.50;;;;;;;;;;5075077;28;20502;-70
2022/03/24 03:36:42;;;;;;;41.10;24.30;;;;;;;;;;5074832;28;20032;-69
2022/03/24 03:39:08;;;;;;;39.35;23.33;;;;;;;;;;5075225;28;20545;-69
2022/03/24 03:41:34;;;;;;;45.50;24.83;;;;;;;;;;5075080;28;20063;-69
2022/03/24 03:44:00;;;;;;;41.45;26.05;;;;;;;;;;5075022;28;20070;-61
2022/03/24 03:46:26;;;;;;;45.92;26.70;;;;;;;;;;5057281;28;20032;-61
2022/03/24 03:48:51;;;;;;;48.17;27.15;;;;;;;;;;5074666;28;20035;-62
2022/03/24 03:51:16;;;;;;;51.92;28.10;;;;;;;;;;5075129;28;20051;-62
2022/03/24 03:53:42;;;;;;;51.33;28.13;;;;;;;;;;5040521;28;20525;-62
2022/03/24 03:56:08;;;;;;;43.05;25.17;;;;;;;;;;5074993;28;20045;-62
2022/03/24 03:58:37;;;;;;;45.53;27.35;;;;;;;;;;5074717;28;20028;-70
2022/03/24 04:01:06;;;;;;;45.70;25.33;;;;;;;;;;5074683;28;20032;-70
2022/03/24 04:03:32;;;;;;;36.50;21.90;;;;;;;;;;5056613;28;20582;-70
2022/03/24 04:05:59;;;;;;;35.42;22.80;;;;;;;;;;5074709;28;20052;-69
2022/03/24 04:08:24;;;;;;;39.35;23.00;;;;;;;;;;5074651;28;20047;-69
2022/03/24 04:10:50;;;;;;;35.67;23.17;;;;;;;;;;5074610;28;20546;-69
2022/03/24 04:13:17;;;;;;;35.13;22.83;;;;;;;;;;5074543;28;20483;-69
2022/03/24 04:15:43;;;;;;;36.92;23.00;;;;;;;;;;5074620;28;20105;-69
2022/03/24 04:18:09;;;;;;;37.63;23.95;;;;;;;;;;5074244;28;20459;-70
2022/03/24 04:20:34;;;;;;;46.63;26.73;;;;;;;;;;5074177;28;20025;-69
2022/03/24 04:23:01;;;;;;;46.28;26.95;;;;;;;;;;5073601;28;20391;-69
2022/03/24 04:25:26;;;;;;;38.88;23.58;;;;;;;;;;5074275;28;20040;-69
2022/03/24 04:27:52;;;;;;;42.85;24.35;;;;;;;;;;5074310;28;20032;-70
2022/03/24 04:30:17;;;;;;;42.22;24.90;;;;;;;;;;5074103;28;20050;-62
2022/03/24 04:32:43;;;;;;;41.42;24.75;;;;;;;;;;5074063;28;20055;-62
2022/03/24 04:35:09;;;;;;;37.08;23.50;;;;;;;;;;5056191;28;20055;-61
2022/03/24 04:37:36;;;;;;;44.25;25.27;;;;;;;;;;5064401;28;20040;-62
2022/03/24 04:40:03;;;;;;;46.05;25.65;;;;;;;;;;5073692;28;20033;-62
2022/03/24 04:42:29;;;;;;;47.25;25.90;;;;;;;;;;5073979;28;20052;-61
2022/03/24 04:44:55;;;;;;;43.67;25.67;;;;;;;;;;5073148;28;20083;-62
2022/03/24 04:47:20;;;;;;;43.92;25.02;;;;;;;;;;5073934;28;20367;-62
2022/03/24 04:49:47;;;;;;;44.78;25.45;;;;;;;;;;5073817;28;20419;-62
2022/03/24 04:52:13;;;;;;;38.88;24.35;;;;;;;;;;5073349;28;20039;-61
2022/03/24 04:54:38;;;;;;;38.58;23.88;;;;;;;;;;5073749;28;20391;-62
2022/03/24 04:57:04;;;;;;;42.17;23.77;;;;;;;;;;5073640;28;20368;-62
2022/03/24 04:59:30;;;;;;;41.78;23.48;;;;;;;;;;5072469;28;20119;-62
2022/03/24 05:01:56;;;;;;;40.97;24.25;;;;;;;;;;5072378;28;20523;-70
2022/03/24 05:04:23;;;;;;;38.92;22.85;;;;;;;;;;5073758;28;20524;-70
2022/03/24 05:06:49;;;;;;;39.63;23.75;;;;;;;;;;5055582;28;20368;-69
2022/03/24 05:09:14;;;;;;;40.17;22.77;;;;;;;;;;5072740;28;20124;-70
2022/03/24 05:11:39;;;;;;;35.65;22.50;;;;;;;;;;5073727;28;20376;-70
2022/03/24 05:14:05;;;;;;;42.22;24.42;;;;;;;;;;5073632;28;20040;-71
2022/03/24 05:16:30;;;;;;;49.63;28.55;;;;;;;;;;5071893;28;20035;-71
2022/03/24 05:18:56;;;;;;;49.10;28.75;;;;;;;;;;5073295;28;20123;-70
2022/03/24 05:21:22;;;;;;;96.25;57.55;;;;;;;;;;5073501;28;20165;-70
2022/03/24 05:23:47;;;;;;;114.93;71.95;;;;;;;;;;5073292;28;20565;-70
2022/03/24 05:26:13;;;;;;;108.75;66.93;;;;;;;;;;5073564;28;20501;-71
2022/03/24 05:28:39;;;;;;;207.90;122.47;;;;;;;;;;5072868;28;20056;-71
2022/03/24 05:31:05;;;;;;;175.43;99.80;;;;;;;;;;5072694;28;20119;-71
2022/03/24 05:33:37;;;;;;;131.38;72.80;;;;;;;;;;5074704;28;20469;-71
2022/03/24 05:36:02;;;;;;;82.93;47.28;;;;;;;;;;5077542;28;20041;-71
2022/03/24 05:38:28;;;;;;;91.13;51.28;;;;;;;;;;5076916;28;20045;-71
2022/03/24 05:40:54;;;;;;;55.45;33.20;;;;;;;;;;5077444;28;20045;-71
2022/03/24 05:43:19;;;;;;;60.20;34.80;;;;;;;;;;5077119;28;20367;-71
2022/03/24 05:45:45;;;;;;;66.47;38.20;;;;;;;;;;5077174;28;20032;-71
2022/03/24 05:48:10;;;;;;;78.35;41.70;;;;;;;;;;5077443;28;20032;-70
2022/03/24 05:51:05;;;;;;;76.28;42.25;;;;;;;;;;5068126;28;20128;-70
2022/03/24 05:53:31;;;;;;;71.05;38.63;;;;;;;;;;5077211;28;20060;-70
2022/03/24 05:55:56;;;;;;;64.97;34.75;;;;;;;;;;5077061;28;20107;-70
2022/03/24 05:58:22;;;;;;;63.50;36.17;;;;;;;;;;5076853;28;20047;-70
2022/03/24 06:00:47;;;;;;;68.88;40.22;;;;;;;;;;5076566;28;20029;-70
2022/03/24 06:03:15;;;;;;;78.50;44.85;;;;;;;;;;5076997;28;20425;-70
2022/03/24 06:05:41;;;;;;;86.63;47.70;;;;;;;;;;5076905;28;20070;-71
2022/03/24 06:08:07;;;;;;;59.95;34.40;;;;;;;;;;5076688;28;20037;-70
2022/03/24 06:10:33;;;;;;;55.75;31.05;;;;;;;;;;5058443;28;20017;-70
2022/03/24 06:12:58;;;;;;;61.10;33.40;;;;;;;;;;5076276;28;20474;-70
2022/03/24 06:15:24;;;;;;;55.95;31.25;;;;;;;;;;5076730;28;20029;-70
2022/03/24 06:17:49;;;;;;;48.67;27.27;;;;;;;;;;5076630;28;20031;-70
2022/03/24 06:20:15;;;;;;;52.97;27.98;;;;;;;;;;5076492;28;20103;-70
2022/03/24 06:22:50;;;;;;;41.55;23.58;;;;;;;;;;5076627;28;20044;-70
2022/03/24 06:25:16;;;;;;;42.67;23.13;;;;;;;;;;5076712;28;20044;-70
2022/03/24 06:27:49;;;;;;;39.17;22.75;;;;;;;;;;5076371;28;20021;-70
2022/03/24 06:30:21;;;;;;;37.58;20.63;;;;;;;;;;5076260;28;20036;-70
2022/03/24 06:32:47;;;;;;;48.78;27.23;;;;;;;;;;5076149;28;20047;-69
2022/03/24 06:35:13;;;;;;;51.55;29.35;;;;;;;;;;5076323;28;20036;-69
2022/03/24 06:37:42;;;;;;;47.50;29.85;;;;;;;;;;5075714;28;20394;-69
2022/03/24 06:40:08;;;;;;;50.70;25.70;;;;;;;;;;5076241;28;20186;-69
2022/03/24 06:42:34;;;;;;;52.13;29.13;;;;;;;;;;5076125;28;20032;-69
2022/03/24 06:44:59;;;;;;;44.08;25.45;;;;;;;;;;5057444;28;20401;-69
2022/03/24 06:47:25;;;;;;;53.08;29.65;;;;;;;;;;5075749;28;20455;-70
2022/03/24 06:49:50;;;;;;;36.75;19.85;;;;;;;;;;5074986;28;20105;-70
2022/03/24 06:52:16;;;;;;;33.40;19.85;;;;;;;;;;5075706;28;20047;-62
2022/03/24 06:54:41;;;;;;;35.70;21.92;;;;;;;;;;5076116;28;20055;-62
2022/03/24 06:57:07;;;;;;;35.28;20.25;;;;;;;;;;5075944;28;20372;-62
2022/03/24 06:59:33;;;;;;;37.35;20.92;;;;;;;;;;5057902;28;20029;-62
2022/03/24 07:01:59;;;;;;;42.25;24.38;;;;;;;;;;5075831;28;20032;-62
2022/03/24 07:04:24;;;;;;;42.00;24.77;;;;;;;;;;5075529;28;20410;-62
2022/03/24 07:06:49;;;;;;;38.85;21.25;;;;;;;;;;5075559;28;20033;-62
2022/03/24 07:09:15;;;;;;;66.38;34.13;;;;;;;;;;5075073;28;20536;-62
2022/03/24 07:11:40;;;;;;;83.43;46.78;;;;;;;;;;5075195;28;20040;-63
2022/03/24 07:14:06;;;;;;;31.38;19.45;;;;;;;;;;5056271;28;20036;-63
2022/03/24 07:16:32;;;;;;;34.97;18.90;;;;;;;;;;5057158;28;20403;-62
2022/03/24 07:18:57;;;;;;;30.70;19.00;;;;;;;;;;5075133;28;20017;-62
2022/03/24 07:21:23;;;;;;;62.00;39.40;;;;;;;;;;5075286;28;20116;-62
2022/03/24 07:23:48;;;;;;;37.13;26.20;;;;;;;;;;5075202;28;20439;-62
2022/03/24 07:26:14;;;;;;;42.58;28.27;;;;;;;;;;5075122;28;20450;-62
2022/03/24 07:28:40;;;;;;;37.65;23.17;;;;;;;;;;5074837;28;20029;-62
2022/03/24 07:31:13;;;;;;;32.55;20.85;;;;;;;;;;5074856;28;20560;-62
2022/03/24 07:33:39;;;;;;;35.45;22.85;;;;;;;;;;5074873;28;20433;-62
2022/03/24 07:36:07;;;;;;;32.88;19.33;;;;;;;;;;5074729;28;20020;-62
2022/03/24 07:38:33;;;;;;;31.45;18.63;;;;;;;;;;5094706;28;20509;-62
2022/03/24 07:40:58;;;;;;;31.23;19.02;;;;;;;;;;5094950;28;20028;-62
2022/03/24 07:43:24;;;;;;;30.52;19.67;;;;;;;;;;5076886;28;20482;-62
2022/03/24 07:45:49;;;;;;;31.38;19.20;;;;;;;;;;5094840;28;20521;-62
2022/03/24 07:48:17;;;;;;;32.45;19.77;;;;;;;;;;5094787;28;20028;-62
2022/03/24 07:50:46;;;;;;;30.85;19.50;;;;;;;;;;5094911;28;20027;-62
2022/03/24 07:53:12;;;;;;;33.33;20.55;;;;;;;;;;5094857;28;20566;-62
2022/03/24 07:55:38;;;;;;;30.10;19.23;;;;;;;;;;5094786;28;20024;-62
2022/03/24 07:58:04;;;;;;;129.43;23.92;;;;;;;;;;5094736;28;20035;-62
2022/03/24 08:00:30;;;;;;;30.70;19.55;;;;;;;;;;5094656;28;20039;-62
2022/03/24 08:02:55;;;;;;;32.67;19.27;;;;;;;;;;5094500;28;20032;-62
2022/03/24 08:05:22;;;;;;;28.30;19.27;;;;;;;;;;5094441;28;20490;-62
2022/03/24 08:07:47;;;;;;;27.98;17.58;;;;;;;;;;5094497;28;20131;-62
2022/03/24 08:10:12;;;;;;;27.88;18.10;;;;;;;;;;5094373;28;20070;-61
2022/03/24 08:12:38;;;;;;;26.55;17.08;;;;;;;;;;5094593;28;20036;-62
2022/03/24 08:15:04;;;;;;;28.58;17.55;;;;;;;;;;5094484;28;20028;-64
2022/03/24 08:17:29;;;;;;;27.55;18.30;;;;;;;;;;5094425;28;20549;-63
2022/03/24 08:19:57;;;;;;;25.42;16.08;;;;;;;;;;5094312;28;20461;-62
2022/03/24 08:22:22;;;;;;;29.17;16.98;;;;;;;;;;5094203;28;20036;-60
2022/03/24 08:24:51;;;;;;;25.35;15.93;;;;;;;;;;5093850;28;20051;-60
2022/03/24 08:27:17;;;;;;;23.52;14.18;;;;;;;;;;5075849;28;20040;-63
2022/03/24 08:29:42;;;;;;;24.75;17.25;;;;;;;;;;5094891;28;20086;-62
2022/03/24 08:32:08;;;;;;;24.40;15.50;;;;;;;;;;5093151;28;20071;-63
2022/03/24 08:34:33;;;;;;;25.52;18.05;;;;;;;;;;5093194;28;20119;-62
2022/03/24 08:36:59;;;;;;;31.42;17.10;;;;;;;;;;5086640;28;20521;-62
2022/03/24 08:39:24;;;;;;;23.40;16.10;;;;;;;;;;5074321;28;20037;-61
2022/03/24 08:41:51;;;;;;;27.33;16.40;;;;;;;;;;5073045;28;20032;-61
2022/03/24 08:44:16;;;;;;;24.98;17.27;;;;;;;;;;5073720;28;20068;-61
2022/03/24 08:46:42;;;;;;;26.10;17.23;;;;;;;;;;5073868;28;20436;-61
2022/03/24 08:49:07;;;;;;;51.05;31.42;;;;;;;;;;5073505;28;20041;-62
2022/03/24 08:51:34;;;;;;;24.25;17.27;;;;;;;;;;5073578;28;20409;-62
2022/03/24 08:53:59;;;;;;;31.60;18.35;;;;;;;;;;5073585;28;20036;-62
2022/03/24 08:56:25;;;;;;;24.52;17.02;;;;;;;;;;5073676;28;20495;-61
2022/03/24 08:58:50;;;;;;;23.20;14.25;;;;;;;;;;5073661;28;20384;-62
2022/03/24 09:01:16;;;;;;;19.65;12.48;;;;;;;;;;5073619;28;20035;-62
2022/03/24 09:03:42;;;;;;;21.02;13.35;;;;;;;;;;5073674;28;20032;-62
2022/03/24 09:06:07;;;;;;;12.02;8.20;;;;;;;;;;5073779;28;20020;-62
2022/03/24 09:08:33;;;;;;;21.85;14.57;;;;;;;;;;5073362;28;20497;-61
2022/03/24 09:10:59;;;;;;;20.00;12.52;;;;;;;;;;5073732;28;20025;-61
2022/03/24 09:13:24;;;;;;;14.32;10.50;;;;;;;;;;5073555;28;20037;-61
2022/03/24 09:15:50;;;;;;;19.60;12.63;;;;;;;;;;5073232;28;20035;-62
2022/03/24 09:18:16;;;;;;;18.27;11.95;;;;;;;;;;5072959;28;20036;-63
2022/03/24 09:20:41;;;;;;;17.52;12.20;;;;;;;;;;5072781;28;20489;-63
2022/03/24 09:23:08;;;;;;;17.23;11.60;;;;;;;;;;5073312;28;20123;-60
2022/03/24 09:25:34;;;;;;;12.73;8.90;;;;;;;;;;5073620;28;20032;-61
2022/03/24 09:27:59;;;;;;;16.27;10.48;;;;;;;;;;5073186;28;20032;-60
2022/03/24 09:30:25;;;;;;;11.00;8.48;;;;;;;;;;5072960;28;20043;-61
2022/03/24 09:32:52;;;;;;;11.57;8.00;;;;;;;;;;5073038;28;20029;-61
2022/03/24 09:35:18;;;;;;;10.90;8.15;;;;;;;;;;5073030;28;20031;-61
2022/03/24 09:37:44;;;;;;;10.82;7.82;;;;;;;;;;5085977;28;20040;-62
2022/03/24 09:40:10;;;;;;;12.82;8.63;;;;;;;;;;5092964;28;20042;-61
2022/03/24 09:42:36;;;;;;;13.38;9.35;;;;;;;;;;5093068;28;20032;-61
2022/03/24 09:45:03;;;;;;;13.05;9.05;;;;;;;;;;5092955;28;20390;-61
2022/03/24 09:47:29;;;;;;;10.38;8.85;;;;;;;;;;5093126;28;20032;-61
2022/03/24 09:49:56;;;;;;;12.88;8.52;;;;;;;;;;5093017;28;20032;-61
2022/03/24 09:52:22;;;;;;;9.15;7.18;;;;;;;;;;5092867;28;20043;-61
2022/03/24 09:54:48;;;;;;;11.25;7.90;;;;;;;;;;5092952;28;20039;-61
2022/03/24 09:57:14;;;;;;;12.07;8.60;;;;;;;;;;5092907;28;20486;-61
2022/03/24 09:59:40;;;;;;;16.98;6.72;;;;;;;;;;5092836;28;20066;-61
2022/03/24 10:02:07;;;;;;;9.35;7.10;;;;;;;;;;5092965;28;20059;-61
2022/03/24 10:04:49;;;;;;;10.40;8.38;;;;;;;;;;5092943;28;20028;-62
2022/03/24 10:07:14;;;;;;;10.27;7.65;;;;;;;;;;5092972;28;20078;-62
2022/03/24 10:09:41;;;;;;;9.15;6.45;;;;;;;;;;5092852;28;20036;-62
2022/03/24 10:12:08;;;;;;;9.85;6.28;;;;;;;;;;5092810;28;20476;-61
2022/03/24 10:14:34;;;;;;;8.57;6.25;;;;;;;;;;5092741;28;20024;-62
2022/03/24 10:17:06;;;;;;;9.57;7.18;;;;;;;;;;5092330;28;20036;-61
2022/03/24 10:19:32;;;;;;;8.98;6.40;;;;;;;;;;5092494;28;20044;-62
2022/03/24 10:21:57;;;;;;;9.68;6.65;;;;;;;;;;5076821;28;20051;-61
2022/03/24 10:24:23;;;;;;;11.15;6.70;;;;;;;;;;5095970;28;20032;-61
2022/03/24 10:27:00;;;;;;;11.18;7.07;;;;;;;;;;5095851;28;20111;-61
2022/03/24 10:29:26;;;;;;;9.73;7.65;;;;;;;;;;5095850;28;20040;-62
2022/03/24 10:31:53;;;;;;;9.52;6.45;;;;;;;;;;5095931;28;20421;-60
2022/03/24 10:34:30;;;;;;;10.15;7.13;;;;;;;;;;5077957;28;20043;-61
2022/03/24 10:36:55;;;;;;;9.00;6.53;;;;;;;;;;5095848;28;20097;-61
2022/03/24 10:39:24;;;;;;;7.57;6.05;;;;;;;;;;5096173;28;20044;-62
2022/03/24 10:41:51;;;;;;;7.50;6.35;;;;;;;;;;5096236;28;20555;-61
2022/03/24 10:44:17;;;;;;;9.20;6.13;;;;;;;;;;5096146;28;20052;-62
2022/03/24 10:46:43;;;;;;;7.18;6.47;;;;;;;;;;5096059;28;20406;-61
2022/03/24 10:49:20;;;;;;;9.13;6.15;;;;;;;;;;5096030;28;20042;-61
2022/03/24 10:51:47;;;;;;;8.80;5.30;;;;;;;;;;5095886;28;20478;-61
2022/03/24 10:54:12;;;;;;;6.95;5.35;;;;;;;;;;5096375;28;20028;-61
2022/03/24 10:56:43;;;;;;;9.27;6.38;;;;;;;;;;5096284;28;20046;-61
2022/03/24 10:59:09;;;;;;;9.43;6.78;;;;;;;;;;5095962;28;20402;-61
2022/03/24 11:01:34;;;;;;;8.15;5.60;;;;;;;;;;5096167;28;20032;-61
2022/03/24 11:04:00;;;;;;;7.63;6.25;;;;;;;;;;5095676;28;20060;-61
2022/03/24 11:06:27;;;;;;;8.20;6.13;;;;;;;;;;5095709;28;20062;-61
2022/03/24 11:08:52;;;;;;;9.25;6.85;;;;;;;;;;5077705;28;20044;-61
2022/03/24 11:11:19;;;;;;;7.43;5.90;;;;;;;;;;5077630;28;20119;-61
2022/03/24 11:13:44;;;;;;;7.70;5.63;;;;;;;;;;5077562;28;20126;-61
2022/03/24 11:16:11;;;;;;;6.53;5.55;;;;;;;;;;5095581;28;20123;-61
2022/03/24 11:18:37;;;;;;;7.35;6.10;;;;;;;;;;5095378;28;20086;-61
2022/03/24 11:21:06;;;;;;;5.95;5.38;;;;;;;;;;5077303;28;20489;-61
2022/03/24 11:23:35;;;;;;;7.15;5.93;;;;;;;;;;5095463;28;20048;-61
2022/03/24 11:26:02;;;;;;;7.32;6.07;;;;;;;;;;5095488;28;20394;-61
2022/03/24 11:28:27;;;;;;;8.40;4.85;;;;;;;;;;5095362;28;20097;-61
2022/03/24 11:30:53;;;;;;;4.90;4.40;;;;;;;;;;5094974;28;20075;-61
2022/03/24 11:33:20;;;;;;;7.45;4.22;;;;;;;;;;5095368;28;20035;-61
2022/03/24 11:35:49;;;;;;;6.13;5.25;;;;;;;;;;5095284;28;20404;-61
2022/03/24 11:38:15;;;;;;;3.40;3.13;;;;;;;;;;5094913;28;20038;-61
2022/03/24 11:40:41;;;;;;;6.25;4.05;;;;;;;;;;5095444;28;20469;-61
2022/03/24 11:43:21;;;;;;;4.13;3.83;;;;;;;;;;5095383;28;20039;-62
2022/03/24 11:45:49;;;;;;;6.35;3.67;;;;;;;;;;5095450;28;20029;-61
2022/03/24 11:48:16;;;;;;;7.95;4.15;;;;;;;;;;5095368;28;20038;-61
2022/03/24 11:50:52;;;;;;;6.57;3.20;;;;;;;;;;5095222;28;20394;-61
2022/03/24 11:53:30;;;;;;;4.43;4.03;;;;;;;;;;5094980;28;20043;-61
2022/03/24 11:55:59;;;;;;;3.85;3.50;;;;;;;;;;5076703;28;20474;-61
2022/03/24 11:58:25;;;;;;;9.27;4.25;;;;;;;;;;5076497;28;20062;-61
2022/03/24 12:00:50;;;;;;;5.45;3.20;;;;;;;;;;5094605;28;20379;-62
2022/03/24 12:03:34;;;;;;;5.75;3.72;;;;;;;;;;5094700;28;20028;-62
2022/03/24 12:05:59;;;;;;;2.80;2.17;;;;;;;;;;5076327;28;20039;-62
2022/03/24 12:08:26;;;;;;;2.80;2.60;;;;;;;;;;5094739;28;20028;-62
2022/03/24 12:10:51;;;;;;;5.72;3.55;;;;;;;;;;5094588;28;20047;-61
2022/03/24 12:13:19;;;;;;;4.97;2.80;;;;;;;;;;5076325;28;20436;-62
2022/03/24 12:15:45;;;;;;;2.33;2.13;;;;;;;;;;5076352;28;20536;-62
2022/03/24 12:18:15;;;;;;;3.22;2.13;;;;;;;;;;5094383;28;20052;-62
2022/03/24 12:20:41;;;;;;;3.05;1.80;;;;;;;;;;5059487;28;20036;-62
2022/03/24 12:23:07;;;;;;;5.07;2.40;;;;;;;;;;5094181;28;20035;-62
2022/03/24 12:25:34;;;;;;;3.38;2.50;;;;;;;;;;5094135;28;20036;-62
2022/03/24 12:28:04;;;;;;;4.20;2.63;;;;;;;;;;5094101;28;20028;-62
2022/03/24 12:30:43;;;;;;;3.40;3.08;;;;;;;;;;5094069;28;20142;-63
2022/03/24 12:33:10;;;;;;;3.25;2.63;;;;;;;;;;5093998;28;20039;-62
2022/03/24 12:35:41;;;;;;;4.40;2.33;;;;;;;;;;5093937;28;20508;-62
2022/03/24 12:38:22;;;;;;;2.38;2.17;;;;;;;;;;5058952;28;20043;-62
2022/03/24 12:41:06;;;;;;;3.45;2.40;;;;;;;;;;5094110;28;20051;-62
2022/03/24 12:43:47;;;;;;;5.10;2.75;;;;;;;;;;5093155;28;20056;-62
2022/03/24 12:46:12;;;;;;;;;;;;;;;;;;5094208;28;20032;-62
2022/03/24 12:48:39;;;;;;;2.70;2.40;;;;;;;;;;5093846;28;20285;-62
2022/03/24 12:51:22;;;;;;;2.95;2.03;;;;;;;;;;5093788;28;20494;-62
2022/03/24 12:53:49;;;;;;;3.53;2.40;;;;;;;;;;5093694;28;20075;-62
2022/03/24 12:56:19;;;;;;;3.88;2.40;;;;;;;;;;5075671;28;20039;-62
2022/03/24 12:58:49;;;;;;;4.82;2.40;;;;;;;;;;5093518;28;20036;-62
2022/03/24 13:01:16;;;;;;;3.15;2.03;;;;;;;;;;5093799;28;20038;-62
2022/03/24 13:03:42;;;;;;;3.55;2.28;;;;;;;;;;5093574;28;20435;-62
2022/03/24 13:06:07;;;;;;;3.88;2.40;;;;;;;;;;5093487;28;20040;-62
2022/03/24 13:08:32;;;;;;;5.07;2.15;;;;;;;;;;5093462;28;20624;-61
2022/03/24 13:11:04;;;;;;;2.55;2.03;;;;;;;;;;5093354;28;20074;-62
2022/03/24 13:13:29;;;;;;;2.58;1.77;;;;;;;;;;5093615;28;20028;-62
2022/03/24 13:15:55;;;;;;;4.68;2.45;;;;;;;;;;5093496;28;20510;-62
2022/03/24 13:18:23;;;;;;;6.85;2.10;;;;;;;;;;5075410;28;20057;-62
2022/03/24 13:20:53;;;;;;;3.72;2.30;;;;;;;;;;5093461;28;20032;-62
2022/03/24 13:23:20;;;;;;;4.37;3.17;;;;;;;;;;5093362;28;20037;-62
2022/03/24 13:25:50;;;;;;;4.57;2.50;;;;;;;;;;5093328;28;20510;-62
2022/03/24 13:28:16;;;;;;;3.10;2.35;;;;;;;;;;5075310;28;20032;-62
2022/03/24 13:30:42;;;;;;;3.92;2.28;;;;;;;;;;5093267;28;20039;-62
2022/03/24 13:33:08;;;;;;;2.28;1.77;;;;;;;;;;5075159;28;20130;-61
2022/03/24 13:35:38;;;;;;;6.47;3.08;;;;;;;;;;5093118;28;20061;-61
2022/03/24 13:38:05;;;;;;;2.55;1.80;;;;;;;;;;5093000;28;20093;-61
2022/03/24 13:40:32;;;;;;;2.72;2.38;;;;;;;;;;5092938;28;20044;-61
2022/03/24 13:42:58;;;;;;;3.10;2.30;;;;;;;;;;5092984;28;20082;-62
2022/03/24 13:45:24;;;;;;;2.38;2.05;;;;;;;;;;5093156;28;20042;-62
2022/03/24 13:47:56;;;;;;;4.18;2.45;;;;;;;;;;5075030;28;20028;-62
2022/03/24 13:50:26;;;;;;;5.30;2.88;;;;;;;;;;5075032;28;20032;-62
2022/03/24 13:52:52;;;;;;;3.15;2.83;;;;;;;;;;5092905;28;20051;-62
2022/03/24 13:55:19;;;;;;;4.43;2.22;;;;;;;;;;5096041;28;20032;-62
2022/03/24 13:57:45;;;;;;;2.80;2.53;;;;;;;;;;5097088;28;20036;-62
2022/03/24 14:00:11;;;;;;;4.45;2.40;;;;;;;;;;5078634;28;20123;-62
2022/03/24 14:02:37;;;;;;;4.07;2.40;;;;;;;;;;5096908;28;20044;-61
2022/03/24 14:05:14;;;;;;;2.35;2.17;;;;;;;;;;5096964;28;20035;-61
2022/03/24 14:07:55;;;;;;;3.60;2.28;;;;;;;;;;5097020;28;20119;-61
2022/03/24 14:10:21;;;;;;;7.38;3.75;;;;;;;;;;5096857;28;20089;-62
2022/03/24 14:12:51;;;;;;;3.80;2.35;;;;;;;;;;5078871;28;20031;-62
2022/03/24 14:15:17;;;;;;;3.92;2.70;;;;;;;;;;5078668;28;20051;-61
2022/03/24 14:17:42;;;;;;;2.83;2.53;;;;;;;;;;5096600;28;20036;-62
2022/03/24 14:20:10;;;;;;;4.50;3.47;;;;;;;;;;5096573;28;20028;-62
2022/03/24 14:22:47;;;;;;;4.05;2.95;;;;;;;;;;5096751;28;20021;-62
2022/03/24 14:25:13;;;;;;;6.28;2.70;;;;;;;;;;5097049;28;20040;-61